sensor_id;sensor_type;location;lat;lon;timestamp;P1;durP1;ratioP1;P2;durP2;ratioP2
4597;SDS011;62772;48.646;8.906;2023-02-01T00:04:58;11.27;;;7.27;;
4597;SDS011;62772;48.646;8.906;2023-02-01T00:09:58;12.00;;;7.60;;
4597;SDS011;62772;48.646;8.906;2023-02-01T00:14:59;10.77;;;6.50;;
4597;SDS011;62772;48.646;8.906;2023-02-01T00:19:59;11.07;;;6.10;;
4597;SDS011;62772;48.646;8.906;2023-02-01T00:25:00;10.47;;;6.30;;
4597;SDS011;62772;48.646;8.906;2023-02-01T00:30:00;9.97;;;5.60;;
4597;SDS011;62772;48.646;8.906;2023-02-01T00:35:01;8.07;;;5.30;;
4597;SDS011;62772;48.646;8.906;2023-02-01T00:40:01;9.73;;;5.70;;
4597;SDS011;62772;48.646;8.906;2023-02-01T00:45:02;10.27;;;5.80;;
4597;SDS011;62772;48.646;8.906;2023-02-01T00:50:02;11.10;;;4.90;;
4597;SDS011;62772;48.646;8.906;2023-02-01T00:55:03;7.63;;;4.77;;
4597;SDS011;62772;48.646;8.906;2023-02-01T01:00:04;7.10;;;4.27;;
4597;SDS011;62772;48.646;8.906;2023-02-01T01:05:05;8.43;;;5.23;;
4597;SDS011;62772;48.646;8.906;2023-02-01T01:10:06;11.03;;;5.67;;
4597;SDS011;62772;48.646;8.906;2023-02-01T01:15:07;9.93;;;5.40;;
4597;SDS011;62772;48.646;8.906;2023-02-01T01:20:08;8.13;;;4.90;;
4597;SDS011;62772;48.646;8.906;2023-02-01T01:25:09;8.63;;;5.27;;
4597;SDS011;62772;48.646;8.906;2023-02-01T01:30:12;9.83;;;5.87;;
4597;SDS011;62772;48.646;8.906;2023-02-01T01:35:14;9.87;;;5.50;;
4597;SDS011;62772;48.646;8.906;2023-02-01T01:40:15;10.23;;;5.43;;
4597;SDS011;62772;48.646;8.906;2023-02-01T01:45:21;7.47;;;4.70;;
4597;SDS011;62772;48.646;8.906;2023-02-01T01:50:27;8.73;;;5.70;;
4597;SDS011;62772;48.646;8.906;2023-02-01T01:55:40;9.60;;;6.53;;
4597;SDS011;62772;48.646;8.906;2023-02-01T02:00:45;10.90;;;7.10;;
4597;SDS011;62772;48.646;8.906;2023-02-01T02:05:47;11.60;;;6.77;;
4597;SDS011;62772;48.646;8.906;2023-02-01T02:10:50;9.67;;;6.07;;
4597;SDS011;62772;48.646;8.906;2023-02-01T02:37:11;10.60;;;5.80;;
4597;SDS011;62772;48.646;8.906;2023-02-01T02:42:29;12.43;;;5.10;;
4597;SDS011;62772;48.646;8.906;2023-02-01T02:53:19;8.93;;;5.57;;
4597;SDS011;62772;48.646;8.906;2023-02-01T02:58:43;8.30;;;5.60;;
4597;SDS011;62772;48.646;8.906;2023-02-01T03:04:05;8.40;;;5.30;;
4597;SDS011;62772;48.646;8.906;2023-02-01T03:09:16;10.33;;;5.40;;
4597;SDS011;62772;48.646;8.906;2023-02-01T03:14:22;8.80;;;5.67;;
4597;SDS011;62772;48.646;8.906;2023-02-01T03:19:29;11.30;;;6.67;;
4597;SDS011;62772;48.646;8.906;2023-02-01T03:24:50;9.37;;;5.80;;
4597;SDS011;62772;48.646;8.906;2023-02-01T03:29:55;10.23;;;6.07;;
4597;SDS011;62772;48.646;8.906;2023-02-01T03:35:02;11.83;;;6.10;;
4597;SDS011;62772;48.646;8.906;2023-02-01T03:40:07;11.27;;;6.07;;
4597;SDS011;62772;48.646;8.906;2023-02-01T03:45:13;10.60;;;5.80;;
4597;SDS011;62772;48.646;8.906;2023-02-01T03:50:21;9.53;;;5.77;;
4597;SDS011;62772;48.646;8.906;2023-02-01T03:55:25;9.23;;;5.50;;
4597;SDS011;62772;48.646;8.906;2023-02-01T04:00:27;9.63;;;5.60;;
4597;SDS011;62772;48.646;8.906;2023-02-01T04:05:30;8.37;;;5.30;;
4597;SDS011;62772;48.646;8.906;2023-02-01T04:10:39;10.13;;;5.60;;
4597;SDS011;62772;48.646;8.906;2023-02-01T04:15:40;8.77;;;5.40;;
4597;SDS011;62772;48.646;8.906;2023-02-01T04:20:41;7.93;;;5.03;;
4597;SDS011;62772;48.646;8.906;2023-02-01T04:25:42;6.63;;;4.77;;
4597;SDS011;62772;48.646;8.906;2023-02-01T04:30:43;6.70;;;4.90;;
4597;SDS011;62772;48.646;8.906;2023-02-01T04:35:45;5.70;;;4.17;;
4597;SDS011;62772;48.646;8.906;2023-02-01T04:40:46;9.20;;;4.20;;
4597;SDS011;62772;48.646;8.906;2023-02-01T04:45:48;5.53;;;4.07;;
4597;SDS011;62772;48.646;8.906;2023-02-01T04:50:49;6.23;;;4.20;;
4597;SDS011;62772;48.646;8.906;2023-02-01T04:55:49;6.43;;;3.53;;
4597;SDS011;62772;48.646;8.906;2023-02-01T05:00:50;7.93;;;3.73;;
4597;SDS011;62772;48.646;8.906;2023-02-01T05:05:51;6.13;;;4.00;;
4597;SDS011;62772;48.646;8.906;2023-02-01T05:10:53;6.10;;;4.40;;
4597;SDS011;62772;48.646;8.906;2023-02-01T05:15:54;6.60;;;4.40;;
4597;SDS011;62772;48.646;8.906;2023-02-01T05:20:54;6.17;;;4.10;;
4597;SDS011;62772;48.646;8.906;2023-02-01T05:25:59;5.30;;;4.23;;
4597;SDS011;62772;48.646;8.906;2023-02-01T05:31:00;6.00;;;4.20;;
4597;SDS011;62772;48.646;8.906;2023-02-01T05:36:01;6.27;;;4.00;;
4597;SDS011;62772;48.646;8.906;2023-02-01T05:41:01;6.43;;;4.20;;
4597;SDS011;62772;48.646;8.906;2023-02-01T05:46:02;9.80;;;4.60;;
4597;SDS011;62772;48.646;8.906;2023-02-01T05:51:02;7.70;;;4.30;;
4597;SDS011;62772;48.646;8.906;2023-02-01T05:56:03;6.23;;;4.37;;
4597;SDS011;62772;48.646;8.906;2023-02-01T06:01:04;7.63;;;4.60;;
4597;SDS011;62772;48.646;8.906;2023-02-01T06:06:05;7.77;;;4.67;;
4597;SDS011;62772;48.646;8.906;2023-02-01T06:11:06;11.10;;;5.30;;
4597;SDS011;62772;48.646;8.906;2023-02-01T06:16:07;6.07;;;4.53;;
4597;SDS011;62772;48.646;8.906;2023-02-01T06:21:08;7.20;;;4.87;;
4597;SDS011;62772;48.646;8.906;2023-02-01T06:26:08;8.87;;;5.47;;
4597;SDS011;62772;48.646;8.906;2023-02-01T06:31:09;9.20;;;5.67;;
4597;SDS011;62772;48.646;8.906;2023-02-01T06:36:10;12.93;;;5.03;;
4597;SDS011;62772;48.646;8.906;2023-02-01T06:41:15;6.93;;;5.00;;
4597;SDS011;62772;48.646;8.906;2023-02-01T06:46:16;5.80;;;4.53;;
4597;SDS011;62772;48.646;8.906;2023-02-01T06:51:26;6.77;;;4.30;;
4597;SDS011;62772;48.646;8.906;2023-02-01T06:56:28;7.20;;;4.37;;
4597;SDS011;62772;48.646;8.906;2023-02-01T07:01:28;7.70;;;4.83;;
4597;SDS011;62772;48.646;8.906;2023-02-01T07:06:29;7.23;;;4.30;;
4597;SDS011;62772;48.646;8.906;2023-02-01T07:11:29;10.33;;;5.57;;
4597;SDS011;62772;48.646;8.906;2023-02-01T07:16:30;9.93;;;4.77;;
4597;SDS011;62772;48.646;8.906;2023-02-01T07:21:31;7.87;;;4.30;;
4597;SDS011;62772;48.646;8.906;2023-02-01T07:26:31;8.30;;;4.40;;
4597;SDS011;62772;48.646;8.906;2023-02-01T07:31:32;6.20;;;4.60;;
4597;SDS011;62772;48.646;8.906;2023-02-01T07:36:32;8.70;;;4.80;;
4597;SDS011;62772;48.646;8.906;2023-02-01T07:41:34;10.10;;;4.47;;
4597;SDS011;62772;48.646;8.906;2023-02-01T07:46:34;8.53;;;4.00;;
4597;SDS011;62772;48.646;8.906;2023-02-01T07:51:36;12.93;;;4.90;;
4597;SDS011;62772;48.646;8.906;2023-02-01T07:56:36;14.83;;;5.90;;
4597;SDS011;62772;48.646;8.906;2023-02-01T08:01:37;6.60;;;4.17;;
4597;SDS011;62772;48.646;8.906;2023-02-01T08:06:37;6.40;;;4.17;;
4597;SDS011;62772;48.646;8.906;2023-02-01T08:11:39;6.83;;;4.10;;
4597;SDS011;62772;48.646;8.906;2023-02-01T08:16:39;11.07;;;4.60;;
4597;SDS011;62772;48.646;8.906;2023-02-01T08:21:39;8.80;;;4.63;;
4597;SDS011;62772;48.646;8.906;2023-02-01T08:26:40;9.80;;;4.73;;
4597;SDS011;62772;48.646;8.906;2023-02-01T08:31:40;11.40;;;4.97;;
4597;SDS011;62772;48.646;8.906;2023-02-01T08:36:41;16.90;;;4.70;;
4597;SDS011;62772;48.646;8.906;2023-02-01T08:41:42;8.30;;;4.97;;
4597;SDS011;62772;48.646;8.906;2023-02-01T08:47:02;12.80;;;4.80;;
4597;SDS011;62772;48.646;8.906;2023-02-01T08:52:03;12.87;;;4.83;;
4597;SDS011;62772;48.646;8.906;2023-02-01T08:57:04;11.70;;;4.90;;
4597;SDS011;62772;48.646;8.906;2023-02-01T09:02:05;8.90;;;4.63;;
4597;SDS011;62772;48.646;8.906;2023-02-01T09:07:05;11.17;;;4.73;;
4597;SDS011;62772;48.646;8.906;2023-02-01T09:12:06;36.50;;;15.40;;
4597;SDS011;62772;48.646;8.906;2023-02-01T09:17:06;12.67;;;5.00;;
4597;SDS011;62772;48.646;8.906;2023-02-01T09:22:07;14.60;;;4.80;;
4597;SDS011;62772;48.646;8.906;2023-02-01T09:27:08;11.17;;;4.37;;
4597;SDS011;62772;48.646;8.906;2023-02-01T09:32:08;23.33;;;7.27;;
4597;SDS011;62772;48.646;8.906;2023-02-01T09:37:09;15.70;;;5.80;;
4597;SDS011;62772;48.646;8.906;2023-02-01T09:42:19;14.30;;;5.27;;
4597;SDS011;62772;48.646;8.906;2023-02-01T09:47:41;18.93;;;5.40;;
4597;SDS011;62772;48.646;8.906;2023-02-01T09:52:55;11.63;;;5.80;;
4597;SDS011;62772;48.646;8.906;2023-02-01T09:58:02;10.20;;;4.40;;
4597;SDS011;62772;48.646;8.906;2023-02-01T10:03:11;11.43;;;4.80;;
4597;SDS011;62772;48.646;8.906;2023-02-01T10:08:17;14.30;;;5.53;;
4597;SDS011;62772;48.646;8.906;2023-02-01T10:13:41;13.60;;;5.57;;
4597;SDS011;62772;48.646;8.906;2023-02-01T10:18:55;10.93;;;5.37;;
4597;SDS011;62772;48.646;8.906;2023-02-01T10:24:38;11.63;;;4.70;;
4597;SDS011;62772;48.646;8.906;2023-02-01T10:29:37;10.87;;;4.60;;
4597;SDS011;62772;48.646;8.906;2023-02-01T10:34:41;11.77;;;4.70;;
4597;SDS011;62772;48.646;8.906;2023-02-01T10:39:48;15.33;;;3.90;;
4597;SDS011;62772;48.646;8.906;2023-02-01T10:44:49;9.50;;;3.70;;
4597;SDS011;62772;48.646;8.906;2023-02-01T10:55:31;12.57;;;3.97;;
4597;SDS011;62772;48.646;8.906;2023-02-01T11:00:41;13.63;;;3.80;;
4597;SDS011;62772;48.646;8.906;2023-02-01T11:05:46;17.97;;;3.73;;
4597;SDS011;62772;48.646;8.906;2023-02-01T11:10:56;10.77;;;4.07;;
4597;SDS011;62772;48.646;8.906;2023-02-01T11:15:59;9.97;;;4.60;;
4597;SDS011;62772;48.646;8.906;2023-02-01T11:21:03;14.13;;;4.20;;
4597;SDS011;62772;48.646;8.906;2023-02-01T11:26:12;11.50;;;4.40;;
4597;SDS011;62772;48.646;8.906;2023-02-01T11:31:26;14.50;;;4.30;;
4597;SDS011;62772;48.646;8.906;2023-02-01T11:36:29;9.00;;;3.13;;
4597;SDS011;62772;48.646;8.906;2023-02-01T11:41:32;10.77;;;4.23;;
4597;SDS011;62772;48.646;8.906;2023-02-01T11:46:34;9.20;;;3.17;;
4597;SDS011;62772;48.646;8.906;2023-02-01T12:14:04;8.27;;;3.23;;
4597;SDS011;62772;48.646;8.906;2023-02-01T12:30:02;10.30;;;3.50;;
4597;SDS011;62772;48.646;8.906;2023-02-01T12:35:31;14.17;;;4.00;;
4597;SDS011;62772;48.646;8.906;2023-02-01T12:41:07;11.80;;;3.37;;
4597;SDS011;62772;48.646;8.906;2023-02-01T12:46:21;13.13;;;3.57;;
4597;SDS011;62772;48.646;8.906;2023-02-01T12:51:34;14.43;;;4.43;;
4597;SDS011;62772;48.646;8.906;2023-02-01T12:56:38;14.37;;;4.23;;
4597;SDS011;62772;48.646;8.906;2023-02-01T13:07:14;7.23;;;2.70;;
4597;SDS011;62772;48.646;8.906;2023-02-01T13:12:25;21.20;;;3.80;;
4597;SDS011;62772;48.646;8.906;2023-02-01T13:17:32;8.00;;;3.30;;
4597;SDS011;62772;48.646;8.906;2023-02-01T13:22:47;20.47;;;4.67;;
4597;SDS011;62772;48.646;8.906;2023-02-01T13:27:53;10.83;;;4.00;;
4597;SDS011;62772;48.646;8.906;2023-02-01T13:33:03;11.90;;;4.57;;
4597;SDS011;62772;48.646;8.906;2023-02-01T13:38:43;8.03;;;4.47;;
4597;SDS011;62772;48.646;8.906;2023-02-01T13:43:52;9.40;;;3.87;;
4597;SDS011;62772;48.646;8.906;2023-02-01T13:48:59;16.60;;;5.10;;
4597;SDS011;62772;48.646;8.906;2023-02-01T13:54:03;15.77;;;3.80;;
4597;SDS011;62772;48.646;8.906;2023-02-01T13:59:35;11.80;;;4.37;;
4597;SDS011;62772;48.646;8.906;2023-02-01T14:04:48;18.43;;;4.80;;
4597;SDS011;62772;48.646;8.906;2023-02-01T14:09:50;9.53;;;3.60;;
4597;SDS011;62772;48.646;8.906;2023-02-01T14:14:50;10.70;;;4.17;;
4597;SDS011;62772;48.646;8.906;2023-02-01T14:19:51;15.27;;;5.80;;
4597;SDS011;62772;48.646;8.906;2023-02-01T14:25:33;21.33;;;10.47;;
4597;SDS011;62772;48.646;8.906;2023-02-01T14:30:34;28.87;;;10.87;;
4597;SDS011;62772;48.646;8.906;2023-02-01T14:35:35;16.10;;;7.80;;
4597;SDS011;62772;48.646;8.906;2023-02-01T14:40:36;73.73;;;23.23;;
4597;SDS011;62772;48.646;8.906;2023-02-01T14:50:38;68.30;;;21.47;;
4597;SDS011;62772;48.646;8.906;2023-02-01T14:55:42;31.73;;;12.20;;
4597;SDS011;62772;48.646;8.906;2023-02-01T15:00:56;17.10;;;7.20;;
4597;SDS011;62772;48.646;8.906;2023-02-01T15:05:59;13.30;;;5.73;;
4597;SDS011;62772;48.646;8.906;2023-02-01T15:11:06;17.90;;;6.00;;
4597;SDS011;62772;48.646;8.906;2023-02-01T15:16:14;13.37;;;6.07;;
4597;SDS011;62772;48.646;8.906;2023-02-01T15:21:20;12.80;;;5.43;;
4597;SDS011;62772;48.646;8.906;2023-02-01T15:26:25;15.13;;;5.10;;
4597;SDS011;62772;48.646;8.906;2023-02-01T15:31:38;19.47;;;5.40;;
4597;SDS011;62772;48.646;8.906;2023-02-01T15:36:41;12.23;;;4.10;;
4597;SDS011;62772;48.646;8.906;2023-02-01T15:41:42;18.70;;;6.17;;
4597;SDS011;62772;48.646;8.906;2023-02-01T15:46:47;19.10;;;6.70;;
4597;SDS011;62772;48.646;8.906;2023-02-01T15:51:49;15.97;;;5.43;;
4597;SDS011;62772;48.646;8.906;2023-02-01T15:56:51;19.83;;;5.73;;
4597;SDS011;62772;48.646;8.906;2023-02-01T16:01:54;14.53;;;5.17;;
4597;SDS011;62772;48.646;8.906;2023-02-01T16:07:02;19.50;;;4.60;;
4597;SDS011;62772;48.646;8.906;2023-02-01T16:12:32;12.30;;;5.00;;
4597;SDS011;62772;48.646;8.906;2023-02-01T16:17:38;16.73;;;6.97;;
4597;SDS011;62772;48.646;8.906;2023-02-01T16:22:38;15.80;;;4.80;;
4597;SDS011;62772;48.646;8.906;2023-02-01T16:27:39;9.10;;;4.23;;
4597;SDS011;62772;48.646;8.906;2023-02-01T16:32:39;16.80;;;4.70;;
4597;SDS011;62772;48.646;8.906;2023-02-01T16:37:40;18.17;;;5.70;;
4597;SDS011;62772;48.646;8.906;2023-02-01T16:42:40;15.80;;;5.20;;
4597;SDS011;62772;48.646;8.906;2023-02-01T16:47:43;12.07;;;5.27;;
4597;SDS011;62772;48.646;8.906;2023-02-01T16:52:49;16.83;;;5.77;;
4597;SDS011;62772;48.646;8.906;2023-02-01T16:57:50;22.77;;;7.90;;
4597;SDS011;62772;48.646;8.906;2023-02-01T17:02:51;19.53;;;8.10;;
4597;SDS011;62772;48.646;8.906;2023-02-01T17:07:52;14.53;;;6.53;;
4597;SDS011;62772;48.646;8.906;2023-02-01T17:12:52;11.60;;;5.10;;
4597;SDS011;62772;48.646;8.906;2023-02-01T17:17:53;20.20;;;6.17;;
4597;SDS011;62772;48.646;8.906;2023-02-01T17:22:57;20.07;;;7.67;;
4597;SDS011;62772;48.646;8.906;2023-02-01T17:27:58;34.40;;;11.00;;
4597;SDS011;62772;48.646;8.906;2023-02-01T17:32:59;45.40;;;18.07;;
4597;SDS011;62772;48.646;8.906;2023-02-01T17:37:59;61.00;;;24.00;;
4597;SDS011;62772;48.646;8.906;2023-02-01T17:43:00;70.33;;;21.90;;
4597;SDS011;62772;48.646;8.906;2023-02-01T17:48:01;18.70;;;6.87;;
4597;SDS011;62772;48.646;8.906;2023-02-01T17:53:03;72.20;;;25.73;;
4597;SDS011;62772;48.646;8.906;2023-02-01T17:58:09;14.97;;;6.67;;
4597;SDS011;62772;48.646;8.906;2023-02-01T18:03:20;15.97;;;5.40;;
4597;SDS011;62772;48.646;8.906;2023-02-01T18:08:26;10.80;;;4.37;;
4597;SDS011;62772;48.646;8.906;2023-02-01T18:13:29;12.90;;;4.23;;
4597;SDS011;62772;48.646;8.906;2023-02-01T18:18:30;7.60;;;3.77;;
4597;SDS011;62772;48.646;8.906;2023-02-01T18:23:33;10.27;;;4.10;;
4597;SDS011;62772;48.646;8.906;2023-02-01T18:28:34;10.53;;;5.07;;
4597;SDS011;62772;48.646;8.906;2023-02-01T18:33:34;13.53;;;4.47;;
4597;SDS011;62772;48.646;8.906;2023-02-01T18:38:35;12.07;;;4.67;;
4597;SDS011;62772;48.646;8.906;2023-02-01T18:43:35;9.80;;;4.40;;
4597;SDS011;62772;48.646;8.906;2023-02-01T18:48:35;12.77;;;4.87;;
4597;SDS011;62772;48.646;8.906;2023-02-01T18:53:37;10.97;;;4.50;;
4597;SDS011;62772;48.646;8.906;2023-02-01T18:58:37;13.70;;;4.80;;
4597;SDS011;62772;48.646;8.906;2023-02-01T19:03:38;13.80;;;4.40;;
4597;SDS011;62772;48.646;8.906;2023-02-01T19:08:39;13.83;;;5.00;;
4597;SDS011;62772;48.646;8.906;2023-02-01T19:13:39;13.03;;;3.70;;
4597;SDS011;62772;48.646;8.906;2023-02-01T19:18:40;24.67;;;5.73;;
4597;SDS011;62772;48.646;8.906;2023-02-01T19:23:41;16.23;;;5.07;;
4597;SDS011;62772;48.646;8.906;2023-02-01T19:28:41;13.37;;;4.53;;
4597;SDS011;62772;48.646;8.906;2023-02-01T19:33:46;21.80;;;5.90;;
4597;SDS011;62772;48.646;8.906;2023-02-01T19:38:47;22.40;;;7.73;;
4597;SDS011;62772;48.646;8.906;2023-02-01T19:43:47;12.53;;;4.70;;
4597;SDS011;62772;48.646;8.906;2023-02-01T19:48:48;15.60;;;5.00;;
4597;SDS011;62772;48.646;8.906;2023-02-01T19:53:48;13.17;;;4.20;;
4597;SDS011;62772;48.646;8.906;2023-02-01T19:58:49;11.33;;;3.90;;
4597;SDS011;62772;48.646;8.906;2023-02-01T20:03:50;10.87;;;4.90;;
4597;SDS011;62772;48.646;8.906;2023-02-01T20:08:52;9.73;;;4.13;;
4597;SDS011;62772;48.646;8.906;2023-02-01T20:13:52;13.10;;;4.40;;
4597;SDS011;62772;48.646;8.906;2023-02-01T20:18:53;12.97;;;4.93;;
4597;SDS011;62772;48.646;8.906;2023-02-01T20:23:53;12.30;;;3.60;;
4597;SDS011;62772;48.646;8.906;2023-02-01T20:28:54;15.77;;;5.33;;
4597;SDS011;62772;48.646;8.906;2023-02-01T20:33:58;18.50;;;5.20;;
4597;SDS011;62772;48.646;8.906;2023-02-01T20:39:03;13.53;;;5.10;;
4597;SDS011;62772;48.646;8.906;2023-02-01T20:44:04;15.33;;;5.80;;
4597;SDS011;62772;48.646;8.906;2023-02-01T20:49:05;16.33;;;4.87;;
4597;SDS011;62772;48.646;8.906;2023-02-01T20:54:05;15.17;;;4.13;;
4597;SDS011;62772;48.646;8.906;2023-02-01T20:59:07;14.90;;;4.77;;
4597;SDS011;62772;48.646;8.906;2023-02-01T21:04:11;21.17;;;8.63;;
4597;SDS011;62772;48.646;8.906;2023-02-01T21:09:11;20.37;;;6.87;;
4597;SDS011;62772;48.646;8.906;2023-02-01T21:14:12;17.53;;;5.40;;
4597;SDS011;62772;48.646;8.906;2023-02-01T21:19:12;12.57;;;4.67;;
4597;SDS011;62772;48.646;8.906;2023-02-01T21:24:13;16.20;;;4.73;;
4597;SDS011;62772;48.646;8.906;2023-02-01T21:29:14;10.73;;;4.50;;
4597;SDS011;62772;48.646;8.906;2023-02-01T21:34:15;20.03;;;5.23;;
4597;SDS011;62772;48.646;8.906;2023-02-01T21:39:15;12.20;;;4.53;;
4597;SDS011;62772;48.646;8.906;2023-02-01T21:44:16;15.53;;;5.33;;
4597;SDS011;62772;48.646;8.906;2023-02-01T21:49:17;16.73;;;5.17;;
4597;SDS011;62772;48.646;8.906;2023-02-01T21:54:18;13.77;;;4.70;;
4597;SDS011;62772;48.646;8.906;2023-02-01T21:59:18;11.00;;;3.77;;
4597;SDS011;62772;48.646;8.906;2023-02-01T22:04:19;12.10;;;4.27;;
4597;SDS011;62772;48.646;8.906;2023-02-01T22:09:20;15.60;;;5.03;;
4597;SDS011;62772;48.646;8.906;2023-02-01T22:14:22;7.00;;;3.93;;
4597;SDS011;62772;48.646;8.906;2023-02-01T22:19:23;15.53;;;3.77;;
4597;SDS011;62772;48.646;8.906;2023-02-01T22:24:23;14.43;;;3.80;;
4597;SDS011;62772;48.646;8.906;2023-02-01T22:29:24;14.73;;;3.70;;
4597;SDS011;62772;48.646;8.906;2023-02-01T22:34:25;13.33;;;4.73;;
4597;SDS011;62772;48.646;8.906;2023-02-01T22:39:27;11.57;;;4.53;;
4597;SDS011;62772;48.646;8.906;2023-02-01T22:44:27;13.10;;;4.37;;
4597;SDS011;62772;48.646;8.906;2023-02-01T22:49:27;9.97;;;3.50;;
4597;SDS011;62772;48.646;8.906;2023-02-01T22:54:28;17.93;;;3.90;;
4597;SDS011;62772;48.646;8.906;2023-02-01T22:59:28;13.10;;;4.40;;
4597;SDS011;62772;48.646;8.906;2023-02-01T23:04:29;10.23;;;3.80;;
4597;SDS011;62772;48.646;8.906;2023-02-01T23:09:29;8.90;;;3.30;;
4597;SDS011;62772;48.646;8.906;2023-02-01T23:14:30;6.80;;;2.87;;
4597;SDS011;62772;48.646;8.906;2023-02-01T23:19:30;10.23;;;3.80;;
4597;SDS011;62772;48.646;8.906;2023-02-01T23:24:30;13.57;;;3.10;;
4597;SDS011;62772;48.646;8.906;2023-02-01T23:29:31;4.50;;;2.47;;
4597;SDS011;62772;48.646;8.906;2023-02-01T23:34:31;11.90;;;3.50;;
4597;SDS011;62772;48.646;8.906;2023-02-01T23:39:32;9.77;;;3.70;;
4597;SDS011;62772;48.646;8.906;2023-02-01T23:44:32;9.03;;;3.50;;
4597;SDS011;62772;48.646;8.906;2023-02-01T23:49:33;9.07;;;3.17;;
4597;SDS011;62772;48.646;8.906;2023-02-01T23:54:33;18.60;;;3.70;;
4597;SDS011;62772;48.646;8.906;2023-02-01T23:59:34;8.37;;;3.90;;
